BENGL51 KNTU-KNTU
Flight info
| Callsign | BENGL51 |
|---|---|
| Flight time | N/A |
| Altitude | 12000 |
| Route | RBX |
| Aircraft | VF35/M-SDFIRY/LB1 |
Departure
| Time | 2026-04-29 21:28 |
|---|---|
| Airport | Oceana Naval Air Station (KNTU) |
Arrival
| Time | N/A |
|---|---|
| Airport | Oceana Naval Air Station (KNTU) |
| Time | Latitude | Longitude | Altitude | Speed | Heading |
|---|---|---|---|---|---|
| 2026-04-29 21:24 | 36.81460 | -76.03450 | 30 ft | 0 kts | 223° |
| 2026-04-29 21:25 | 36.81445 | -76.03476 | 30 ft | 8 kts | 260° |
| 2026-04-29 21:26 | 36.81490 | -76.03552 | 30 ft | 9 kts | 292° |
| 2026-04-29 21:26 | 36.81494 | -76.03615 | 30 ft | 12 kts | 311° |
| 2026-04-29 21:26 | 36.81491 | -76.03706 | 29 ft | 13 kts | 221° |
| 2026-04-29 21:26 | 36.81406 | -76.03799 | 29 ft | 17 kts | 221° |
| 2026-04-29 21:27 | 36.81325 | -76.03893 | 29 ft | 14 kts | 225° |
| 2026-04-29 21:27 | 36.81339 | -76.03987 | 28 ft | 12 kts | 312° |
| 2026-04-29 21:27 | 36.81405 | -76.04026 | 28 ft | 11 kts | 23° |
| 2026-04-29 21:27 | 36.81462 | -76.03966 | 27 ft | 11 kts | 42° |
| 2026-04-29 21:28 | 36.81696 | -76.03703 | 28 ft | 108 kts | 42° |
| 2026-04-29 21:28 | 36.82519 | -76.02768 | 122 ft | 197 kts | 46° |
| 2026-04-29 21:28 | 36.83694 | -76.01390 | 645 ft | 253 kts | 51° |
| 2026-04-29 21:28 | 36.84396 | -75.99473 | 1340 ft | 243 kts | 90° |
| 2026-04-29 21:29 | 36.84042 | -75.97447 | 1974 ft | 238 kts | 127° |
| 2026-04-29 21:29 | 36.82802 | -75.96132 | 2291 ft | 236 kts | 159° |
| 2026-04-29 21:29 | 36.81261 | -75.95411 | 2395 ft | 235 kts | 166° |
| 2026-04-29 21:29 | 36.79723 | -75.94854 | 2457 ft | 235 kts | 167° |
| 2026-04-29 21:30 | 36.78141 | -75.94346 | 2473 ft | 238 kts | 168° |
| 2026-04-29 21:30 | 36.76559 | -75.93871 | 2478 ft | 236 kts | 169° |
| 2026-04-29 21:30 | 36.74971 | -75.93402 | 2514 ft | 238 kts | 169° |
| 2026-04-29 21:30 | 36.73486 | -75.92977 | 2519 ft | 236 kts | 169° |
| 2026-04-29 21:31 | 36.71907 | -75.92525 | 2520 ft | 236 kts | 169° |
| 2026-04-29 21:31 | 36.70307 | -75.92077 | 2540 ft | 236 kts | 169° |
| 2026-04-29 21:31 | 36.68712 | -75.91632 | 2536 ft | 233 kts | 169° |
| 2026-04-29 21:31 | 36.67144 | -75.91190 | 2528 ft | 233 kts | 169° |
| 2026-04-29 21:32 | 36.65556 | -75.90753 | 2525 ft | 234 kts | 169° |
| 2026-04-29 21:32 | 36.63972 | -75.90312 | 2521 ft | 233 kts | 169° |
| 2026-04-29 21:32 | 36.62383 | -75.89864 | 2516 ft | 234 kts | 169° |
| 2026-04-29 21:32 | 36.60784 | -75.89410 | 2519 ft | 235 kts | 169° |
| 2026-04-29 21:33 | 36.59195 | -75.88952 | 2529 ft | 232 kts | 169° |
| 2026-04-29 21:33 | 36.57616 | -75.88491 | 2527 ft | 235 kts | 169° |
| 2026-04-29 21:33 | 36.56027 | -75.88029 | 2531 ft | 232 kts | 169° |
| 2026-04-29 21:33 | 36.54438 | -75.87561 | 2532 ft | 237 kts | 169° |
| 2026-04-29 21:34 | 36.52868 | -75.87091 | 2533 ft | 235 kts | 169° |
| 2026-04-29 21:34 | 36.51288 | -75.86618 | 2540 ft | 233 kts | 169° |
| 2026-04-29 21:34 | 36.49700 | -75.86141 | 2536 ft | 237 kts | 169° |
| 2026-04-29 21:34 | 36.48101 | -75.85668 | 2523 ft | 235 kts | 169° |
| 2026-04-29 21:35 | 36.46523 | -75.85193 | 2515 ft | 234 kts | 169° |
| 2026-04-29 21:35 | 36.44931 | -75.84710 | 2535 ft | 237 kts | 169° |
| 2026-04-29 21:35 | 36.43342 | -75.84241 | 2538 ft | 233 kts | 169° |
| 2026-04-29 21:35 | 36.41770 | -75.83777 | 2539 ft | 238 kts | 169° |
| 2026-04-29 21:36 | 36.40176 | -75.83300 | 2523 ft | 235 kts | 169° |
| 2026-04-29 21:36 | 36.38567 | -75.82829 | 2532 ft | 238 kts | 169° |
| 2026-04-29 21:36 | 36.36975 | -75.82358 | 2532 ft | 236 kts | 169° |
| 2026-04-29 21:36 | 36.35368 | -75.81882 | 2529 ft | 236 kts | 169° |
| 2026-04-29 21:37 | 36.33766 | -75.81415 | 2534 ft | 237 kts | 169° |
| 2026-04-29 21:37 | 36.32165 | -75.80938 | 2539 ft | 235 kts | 169° |
| 2026-04-29 21:37 | 36.30563 | -75.80465 | 2529 ft | 239 kts | 169° |
| 2026-04-29 21:37 | 36.28950 | -75.79990 | 2531 ft | 237 kts | 169° |
| 2026-04-29 21:38 | 36.27336 | -75.79518 | 2520 ft | 239 kts | 169° |
| 2026-04-29 21:38 | 36.25755 | -75.79049 | 2501 ft | 237 kts | 169° |
| 2026-04-29 21:38 | 36.24135 | -75.78580 | 2496 ft | 238 kts | 169° |
| 2026-04-29 21:38 | 36.22538 | -75.78123 | 2500 ft | 234 kts | 169° |
| 2026-04-29 21:39 | 36.20944 | -75.77680 | 2513 ft | 235 kts | 169° |
| 2026-04-29 21:39 | 36.19353 | -75.77232 | 2517 ft | 234 kts | 169° |
| 2026-04-29 21:39 | 36.17762 | -75.76785 | 2520 ft | 235 kts | 169° |
| 2026-04-29 21:39 | 36.16201 | -75.76347 | 2512 ft | 232 kts | 169° |
| 2026-04-29 21:40 | 36.14592 | -75.75891 | 2520 ft | 234 kts | 169° |
| 2026-04-29 21:40 | 36.12994 | -75.75438 | 2512 ft | 235 kts | 169° |
| 2026-04-29 21:40 | 36.11410 | -75.74988 | 2519 ft | 237 kts | 169° |
| 2026-04-29 21:40 | 36.09814 | -75.74535 | 2520 ft | 237 kts | 169° |
| 2026-04-29 21:41 | 36.08209 | -75.74081 | 2521 ft | 235 kts | 169° |
| 2026-04-29 21:41 | 36.06612 | -75.73629 | 2518 ft | 236 kts | 169° |
| 2026-04-29 21:41 | 36.05016 | -75.73177 | 2529 ft | 236 kts | 169° |
| 2026-04-29 21:41 | 36.03415 | -75.72724 | 2519 ft | 237 kts | 169° |
| 2026-04-29 21:42 | 36.01816 | -75.72271 | 2516 ft | 238 kts | 169° |
| 2026-04-29 21:42 | 36.00207 | -75.71830 | 2515 ft | 234 kts | 175° |
| 2026-04-29 21:42 | 35.98635 | -75.72135 | 2528 ft | 236 kts | 201° |
| 2026-04-29 21:42 | 35.97145 | -75.72953 | 2537 ft | 236 kts | 206° |
| 2026-04-29 21:43 | 35.95700 | -75.73884 | 2536 ft | 234 kts | 208° |
| 2026-04-29 21:43 | 35.94274 | -75.74856 | 2530 ft | 234 kts | 208° |
| 2026-04-29 21:43 | 35.92856 | -75.75849 | 2530 ft | 235 kts | 209° |
| 2026-04-29 21:43 | 35.91442 | -75.76848 | 2532 ft | 235 kts | 209° |
| 2026-04-29 21:44 | 35.90029 | -75.77850 | 2528 ft | 235 kts | 209° |
| 2026-04-29 21:44 | 35.88597 | -75.78860 | 2535 ft | 236 kts | 210° |
| 2026-04-29 21:44 | 35.87165 | -75.79851 | 2570 ft | 240 kts | 210° |
| 2026-04-29 21:44 | 35.85743 | -75.80822 | 2534 ft | 236 kts | 209° |
| 2026-04-29 21:45 | 35.84290 | -75.81807 | 2530 ft | 236 kts | 210° |
| 2026-04-29 21:45 | 35.82835 | -75.82786 | 2529 ft | 238 kts | 209° |
| 2026-04-29 21:45 | 35.81391 | -75.83755 | 2514 ft | 237 kts | 209° |
| 2026-04-29 21:45 | 35.79935 | -75.84730 | 2512 ft | 240 kts | 209° |
| 2026-04-29 21:46 | 35.78476 | -75.85713 | 2507 ft | 240 kts | 209° |
| 2026-04-29 21:46 | 35.77014 | -75.86696 | 2510 ft | 236 kts | 209° |
| 2026-04-29 21:46 | 35.75570 | -75.87672 | 2496 ft | 239 kts | 209° |
| 2026-04-29 21:46 | 35.74126 | -75.88655 | 2487 ft | 239 kts | 209° |
| 2026-04-29 21:47 | 35.72693 | -75.89634 | 2497 ft | 235 kts | 209° |
| 2026-04-29 21:47 | 35.71250 | -75.90614 | 2503 ft | 235 kts | 209° |
| 2026-04-29 21:47 | 35.69812 | -75.91583 | 2511 ft | 236 kts | 209° |
| 2026-04-29 21:47 | 35.68364 | -75.92560 | 2517 ft | 241 kts | 209° |
| 2026-04-29 21:48 | 35.66907 | -75.93535 | 2507 ft | 237 kts | 209° |
| 2026-04-29 21:48 | 35.65452 | -75.94525 | 2581 ft | 240 kts | 209° |
| 2026-04-29 21:48 | 35.63988 | -75.95517 | 2700 ft | 245 kts | 209° |
| 2026-04-29 21:48 | 35.62514 | -75.96508 | 2653 ft | 243 kts | 209° |
| 2026-04-29 21:49 | 35.61040 | -75.97506 | 2641 ft | 242 kts | 209° |
| 2026-04-29 21:49 | 35.59576 | -75.98498 | 2585 ft | 239 kts | 209° |
| 2026-04-29 21:49 | 35.58120 | -75.99489 | 2542 ft | 236 kts | 209° |
| 2026-04-29 21:49 | 35.56668 | -76.00483 | 2525 ft | 238 kts | 209° |
| 2026-04-29 21:50 | 35.55223 | -76.01473 | 2511 ft | 238 kts | 209° |
| 2026-04-29 21:50 | 35.53774 | -76.02466 | 2519 ft | 237 kts | 209° |
| 2026-04-29 21:50 | 35.52326 | -76.03458 | 2557 ft | 239 kts | 209° |
| 2026-04-29 21:50 | 35.50877 | -76.04446 | 2589 ft | 240 kts | 209° |
| 2026-04-29 21:51 | 35.49444 | -76.05419 | 2556 ft | 239 kts | 209° |
| 2026-04-29 21:51 | 35.47997 | -76.06403 | 2529 ft | 240 kts | 209° |
| 2026-04-29 21:51 | 35.45089 | -76.08382 | 2512 ft | 238 kts | 209° |
| 2026-04-29 21:52 | 35.43638 | -76.09370 | 2509 ft | 239 kts | 210° |
| 2026-04-29 21:52 | 35.42182 | -76.10346 | 2512 ft | 240 kts | 209° |
| 2026-04-29 21:52 | 35.40727 | -76.11321 | 2517 ft | 240 kts | 209° |
| 2026-04-29 21:52 | 35.39258 | -76.12306 | 2515 ft | 239 kts | 209° |
| 2026-04-29 21:53 | 35.37816 | -76.13271 | 2522 ft | 241 kts | 209° |
| 2026-04-29 21:53 | 35.36357 | -76.14246 | 2527 ft | 239 kts | 209° |
| 2026-04-29 21:53 | 35.34888 | -76.15222 | 2526 ft | 240 kts | 209° |
| 2026-04-29 21:53 | 35.33410 | -76.16201 | 2513 ft | 240 kts | 209° |
| 2026-04-29 21:54 | 35.31936 | -76.17178 | 2509 ft | 241 kts | 209° |
| 2026-04-29 21:54 | 35.30466 | -76.18147 | 2508 ft | 242 kts | 210° |
| 2026-04-29 21:54 | 35.29002 | -76.19108 | 2503 ft | 240 kts | 210° |
| 2026-04-29 21:54 | 35.27523 | -76.20078 | 2496 ft | 238 kts | 209° |
| 2026-04-29 21:55 | 35.26067 | -76.21030 | 2491 ft | 239 kts | 209° |
| 2026-04-29 21:55 | 35.24594 | -76.22001 | 2497 ft | 242 kts | 209° |
| 2026-04-29 21:55 | 35.23122 | -76.22976 | 2495 ft | 241 kts | 209° |
| 2026-04-29 21:55 | 35.21652 | -76.23943 | 2493 ft | 239 kts | 209° |
| 2026-04-29 21:56 | 35.20173 | -76.24911 | 2492 ft | 242 kts | 210° |
| 2026-04-29 21:56 | 35.18691 | -76.25879 | 2499 ft | 242 kts | 209° |
| 2026-04-29 21:56 | 35.17209 | -76.26844 | 2505 ft | 240 kts | 209° |
| 2026-04-29 21:56 | 35.15732 | -76.27809 | 2505 ft | 240 kts | 209° |
| 2026-04-29 21:57 | 35.14276 | -76.28760 | 2504 ft | 238 kts | 209° |
| 2026-04-29 21:57 | 35.12803 | -76.29726 | 2507 ft | 240 kts | 209° |
| 2026-04-29 21:57 | 35.11325 | -76.30692 | 2511 ft | 240 kts | 210° |
| 2026-04-29 21:57 | 35.09843 | -76.31656 | 2508 ft | 240 kts | 209° |
| 2026-04-29 21:58 | 35.08369 | -76.32616 | 2511 ft | 241 kts | 209° |
| 2026-04-29 21:58 | 35.06897 | -76.33575 | 2505 ft | 241 kts | 209° |
| 2026-04-29 21:58 | 35.05412 | -76.34543 | 2501 ft | 241 kts | 210° |
| 2026-04-29 21:58 | 35.03933 | -76.35507 | 2500 ft | 242 kts | 210° |
| 2026-04-29 21:59 | 35.02480 | -76.36454 | 2517 ft | 243 kts | 209° |
| 2026-04-29 21:59 | 35.01004 | -76.37419 | 2512 ft | 243 kts | 210° |
| 2026-04-29 21:59 | 34.99528 | -76.38384 | 2505 ft | 242 kts | 209° |
| 2026-04-29 21:59 | 34.98049 | -76.39356 | 2497 ft | 242 kts | 210° |
| 2026-04-29 22:00 | 34.96561 | -76.40316 | 2505 ft | 241 kts | 210° |
| 2026-04-29 22:00 | 34.95069 | -76.41271 | 2509 ft | 242 kts | 210° |
| 2026-04-29 22:00 | 34.93579 | -76.42219 | 2504 ft | 242 kts | 210° |
| 2026-04-29 22:00 | 34.92103 | -76.43156 | 2497 ft | 243 kts | 210° |
| 2026-04-29 22:01 | 34.90606 | -76.44104 | 2507 ft | 243 kts | 209° |
| 2026-04-29 22:01 | 34.89107 | -76.45057 | 2504 ft | 243 kts | 209° |
| 2026-04-29 22:01 | 34.87615 | -76.46006 | 2499 ft | 243 kts | 209° |
| 2026-04-29 22:01 | 34.86125 | -76.46955 | 2494 ft | 242 kts | 209° |
| 2026-04-29 22:02 | 34.84622 | -76.47915 | 2506 ft | 241 kts | 209° |
| 2026-04-29 22:02 | 34.83120 | -76.48875 | 2509 ft | 241 kts | 210° |
| 2026-04-29 22:02 | 34.82135 | -76.49505 | 2509 ft | 244 kts | 210° |